Nitra, Slovakia

7:33 AM CEST on October 21, 2014 (GMT +0200)
INITRANI2 | Change Station
CLOSE
Current Station
Personal Weather Station
Location: Nitrianske Hrnciarovce, Nitriansky kraj
Elevation: 837 ft
Nearby Weather Stations

Elev 837 ft 48.34 °N, 18.13 °E | Updated 3 minutes ago

Light Rain
Light Rain
57.9 °F
Feels Like 57.9 °F
N
0.0
Wind Variable Wind from South
Gusts 0.0 mph

Today
High -- | Low -- °F
--% Chance of Precip.
Yesterday
High -- | Low -- °F
Precip. -- in
7:15 AM 5:47 PM
Waning Crescent, 7% visible
Pressure 29.89 in
Visibility 6.2 miles
Clouds Few 1000 ft
Scattered Clouds 4000 ft
Mostly Cloudy 6000 ft
Dew Point 55 °F
Humidity 89%
Rainfall 0.00 in
Snow Depth Not available.
UV 0 out of 12
Pollen Not available.
Air Quality Not available.
Flu Activity Not available.
METAR LZIB 210530Z 31003KT 9999 -RA FEW010 SCT040 BKN060 14/12 Q1012 NOSIG

More Conditions Fewer Conditions

Pressure 29.89 in
Visibility 6.2 miles
Clouds Few 1000 ft
Scattered Clouds 4000 ft
Mostly Cloudy 6000 ft
Dew Point 55 °F
Humidity 89%
Rainfall 0.00 in
Snow Depth Not available.
UV 0 out of 12
Pollen Not available.
Air Quality Not available.
Flu Activity Not available.
METAR LZIB 210530Z 31003KT 9999 -RA FEW010 SCT040 BKN060 14/12 Q1012 NOSIG

More Conditions Fewer Conditions

10-Day Weather Forecast

Almanac

Astronomy

Oct. 21, 2014 Rise Set
Actual Time 7:15 AM CEST 5:47 PM CEST
Civil Twilight 6:43 AM CEST 6:19 PM CEST
Nautical Twilight 6:07 AM CEST 6:55 PM CEST
Astronomical Twilight 5:31 AM CEST 7:31 PM CEST
Moon 4:31 AM CEST 4:41 PM CEST
Length of Visible Light 11h 35m
Length of Day
10h 32m
Tomorrow will be 3m 21s shorter.
Waning Crescent, 7% of the Moon is Illuminated
Today
Waning Crescent
Oct 23
New
Oct 30
First Quarter
Nov 6
Full
Nov 14
Last Quarter

Yesterday's Extremes

Country Highs Country Lows

Community

WunderPhotos

Upload Photos

1,763,612 photos uploaded!

Nearby

Snow Depth

Not available.

Earthquake Activity

City Distance Mag. Time & Date
No recent earthquake activity has been reported nearby.
Minimum magnitude displayed is 2.5.

Coastal Water Temperatures

Place Temperature
No Stations Reporting

Nearby Weather Stations